sensor_id;sensor_type;location;lat;lon;timestamp;pressure;altitude;pressure_sealevel;temperature;humidity
14612;BME280;7392;52.078;11.650;2023-02-28T00:01:33;102373.69;;;-0.70;94.49
14612;BME280;7392;52.078;11.650;2023-02-28T00:04:00;102379.03;;;-0.69;94.25
14612;BME280;7392;52.078;11.650;2023-02-28T00:06:28;102376.53;;;-0.67;94.87
14612;BME280;7392;52.078;11.650;2023-02-28T00:08:56;102375.63;;;-0.68;94.81
14612;BME280;7392;52.078;11.650;2023-02-28T00:11:25;102380.16;;;-0.65;94.97
14612;BME280;7392;52.078;11.650;2023-02-28T00:13:53;102379.34;;;-0.64;94.47
14612;BME280;7392;52.078;11.650;2023-02-28T00:16:22;102368.03;;;-0.65;94.66
14612;BME280;7392;52.078;11.650;2023-02-28T00:18:50;102372.44;;;-0.64;94.47
14612;BME280;7392;52.078;11.650;2023-02-28T00:21:19;102376.84;;;-0.63;94.47
14612;BME280;7392;52.078;11.650;2023-02-28T00:23:47;102373.34;;;-0.63;94.09
14612;BME280;7392;52.078;11.650;2023-02-28T00:26:15;102376.84;;;-0.63;94.44
14612;BME280;7392;52.078;11.650;2023-02-28T00:28:46;102380.38;;;-0.62;94.65
14612;BME280;7392;52.078;11.650;2023-02-28T00:31:15;102389.09;;;-0.62;94.03
14612;BME280;7392;52.078;11.650;2023-02-28T00:33:42;102379.59;;;-0.61;94.31
14612;BME280;7392;52.078;11.650;2023-02-28T00:36:11;102376.97;;;-0.61;94.28
14612;BME280;7392;52.078;11.650;2023-02-28T00:38:39;102373.53;;;-0.60;94.69
14612;BME280;7392;52.078;11.650;2023-02-28T00:41:07;102377.06;;;-0.60;93.75
14612;BME280;7392;52.078;11.650;2023-02-28T00:43:37;102377.88;;;-0.61;93.53
14612;BME280;7392;52.078;11.650;2023-02-28T00:46:07;102371.75;;;-0.61;93.01
14612;BME280;7392;52.078;11.650;2023-02-28T00:48:35;102374.34;;;-0.61;92.27
14612;BME280;7392;52.078;11.650;2023-02-28T00:51:03;102375.13;;;-0.62;92.73
14612;BME280;7392;52.078;11.650;2023-02-28T00:53:31;102376.97;;;-0.61;93.26
14612;BME280;7392;52.078;11.650;2023-02-28T00:55:59;102382.19;;;-0.61;93.24
14612;BME280;7392;52.078;11.650;2023-02-28T00:58:28;102369.91;;;-0.62;93.20
14612;BME280;7392;52.078;11.650;2023-02-28T01:00:56;102372.53;;;-0.62;92.66
14612;BME280;7392;52.078;11.650;2023-02-28T01:03:25;102370.75;;;-0.63;92.91
14612;BME280;7392;52.078;11.650;2023-02-28T01:05:53;102374.03;;;-0.66;92.41
14612;BME280;7392;52.078;11.650;2023-02-28T01:08:21;102369.69;;;-0.65;92.78
14612;BME280;7392;52.078;11.650;2023-02-28T01:10:49;102372.44;;;-0.64;93.04
14612;BME280;7392;52.078;11.650;2023-02-28T01:13:17;102375.97;;;-0.63;93.38
14612;BME280;7392;52.078;11.650;2023-02-28T01:15:49;102370.63;;;-0.65;92.95
14612;BME280;7392;52.078;11.650;2023-02-28T01:18:19;102373.34;;;-0.63;93.09
14612;BME280;7392;52.078;11.650;2023-02-28T01:20:48;102377.66;;;-0.64;93.11
14612;BME280;7392;52.078;11.650;2023-02-28T01:23:18;102370.75;;;-0.63;93.45
14612;BME280;7392;52.078;11.650;2023-02-28T01:25:46;102372.53;;;-0.62;93.70
14612;BME280;7392;52.078;11.650;2023-02-28T01:28:13;102362.09;;;-0.62;93.74
14612;BME280;7392;52.078;11.650;2023-02-28T01:30:41;102368.22;;;-0.62;93.17
14612;BME280;7392;52.078;11.650;2023-02-28T01:33:09;102367.19;;;-0.64;93.20
14612;BME280;7392;52.078;11.650;2023-02-28T01:35:37;102363.00;;;-0.62;93.48
14612;BME280;7392;52.078;11.650;2023-02-28T01:38:06;102357.75;;;-0.62;93.24
14612;BME280;7392;52.078;11.650;2023-02-28T01:40:47;102364.69;;;-0.62;93.35
14612;BME280;7392;52.078;11.650;2023-02-28T01:43:20;102350.88;;;-0.61;93.26
14612;BME280;7392;52.078;11.650;2023-02-28T01:45:48;102354.38;;;-0.61;93.58
14612;BME280;7392;52.078;11.650;2023-02-28T01:48:16;102348.25;;;-0.61;93.05
14612;BME280;7392;52.078;11.650;2023-02-28T01:50:46;102347.31;;;-0.62;92.96
14612;BME280;7392;52.078;11.650;2023-02-28T01:53:19;102354.25;;;-0.62;93.21
14612;BME280;7392;52.078;11.650;2023-02-28T01:55:51;102360.31;;;-0.63;92.81
14612;BME280;7392;52.078;11.650;2023-02-28T01:58:20;102353.25;;;-0.64;92.76
14612;BME280;7392;52.078;11.650;2023-02-28T02:00:49;102349.66;;;-0.66;92.57
14612;BME280;7392;52.078;11.650;2023-02-28T02:03:18;102341.81;;;-0.66;92.80
14612;BME280;7392;52.078;11.650;2023-02-28T02:05:47;102348.72;;;-0.67;92.58
14612;BME280;7392;52.078;11.650;2023-02-28T02:08:19;102349.53;;;-0.68;93.07
14612;BME280;7392;52.078;11.650;2023-02-28T02:10:49;102344.22;;;-0.69;92.82
14612;BME280;7392;52.078;11.650;2023-02-28T02:13:37;102345.81;;;-0.71;92.52
14612;BME280;7392;52.078;11.650;2023-02-28T02:16:15;102348.41;;;-0.71;92.48
14612;BME280;7392;52.078;11.650;2023-02-28T02:18:52;102346.59;;;-0.72;92.89
14612;BME280;7392;52.078;11.650;2023-02-28T02:21:58;102343.88;;;-0.74;93.11
14612;BME280;7392;52.078;11.650;2023-02-28T02:25:04;102339.47;;;-0.75;93.12
14612;BME280;7392;52.078;11.650;2023-02-28T02:31:06;102339.25;;;-0.78;93.26
14612;BME280;7392;52.078;11.650;2023-02-28T02:36:54;102341.66;;;-0.81;93.71
14612;BME280;7392;52.078;11.650;2023-02-28T02:39:30;102345.97;;;-0.82;93.60
14612;BME280;7392;52.078;11.650;2023-02-28T02:42:04;102347.66;;;-0.82;94.16
14612;BME280;7392;52.078;11.650;2023-02-28T02:44:40;102348.47;;;-0.83;94.34
14612;BME280;7392;52.078;11.650;2023-02-28T02:47:14;102351.88;;;-0.84;94.43
14612;BME280;7392;52.078;11.650;2023-02-28T02:49:48;102350.06;;;-0.85;94.77
14612;BME280;7392;52.078;11.650;2023-02-28T02:52:18;102350.84;;;-0.86;94.59
14612;BME280;7392;52.078;11.650;2023-02-28T02:54:49;102347.34;;;-0.87;94.55
14612;BME280;7392;52.078;11.650;2023-02-28T02:57:25;102350.84;;;-0.86;94.86
14612;BME280;7392;52.078;11.650;2023-02-28T02:59:55;102348.94;;;-0.89;94.74
14612;BME280;7392;52.078;11.650;2023-02-28T03:02:23;102349.75;;;-0.90;94.73
14612;BME280;7392;52.078;11.650;2023-02-28T03:05:00;102353.25;;;-0.89;95.39
14612;BME280;7392;52.078;11.650;2023-02-28T03:07:28;102340.09;;;-0.91;95.23
14612;BME280;7392;52.078;11.650;2023-02-28T03:09:57;102347.91;;;-0.91;95.30
14612;BME280;7392;52.078;11.650;2023-02-28T03:12:32;102347.81;;;-0.92;95.13
14612;BME280;7392;52.078;11.650;2023-02-28T03:15:07;102353.97;;;-0.92;95.49
14612;BME280;7392;52.078;11.650;2023-02-28T03:17:50;102356.47;;;-0.93;95.28
14612;BME280;7392;52.078;11.650;2023-02-28T03:20:34;102358.13;;;-0.94;95.26
14612;BME280;7392;52.078;11.650;2023-02-28T03:23:21;102350.31;;;-0.94;95.79
14612;BME280;7392;52.078;11.650;2023-02-28T03:25:56;102351.13;;;-0.95;95.70
14612;BME280;7392;52.078;11.650;2023-02-28T03:28:31;102357.13;;;-0.96;95.63
14612;BME280;7392;52.078;11.650;2023-02-28T03:31:08;102361.34;;;-0.98;95.75
14612;BME280;7392;52.078;11.650;2023-02-28T03:33:39;102357.84;;;-0.99;95.88
14612;BME280;7392;52.078;11.650;2023-02-28T03:36:14;102358.63;;;-1.00;95.51
14612;BME280;7392;52.078;11.650;2023-02-28T03:38:46;102348.91;;;-1.02;95.90
14612;BME280;7392;52.078;11.650;2023-02-28T03:41:17;102362.84;;;-1.02;95.63
14612;BME280;7392;52.078;11.650;2023-02-28T03:43:49;102354.13;;;-1.02;95.68
14612;BME280;7392;52.078;11.650;2023-02-28T03:46:22;102364.44;;;-1.04;95.76
14612;BME280;7392;52.078;11.650;2023-02-28T03:48:55;102361.81;;;-1.04;96.13
14612;BME280;7392;52.078;11.650;2023-02-28T03:51:29;102362.50;;;-1.06;95.79
14612;BME280;7392;52.078;11.650;2023-02-28T03:53:59;102365.94;;;-1.07;96.05
14612;BME280;7392;52.078;11.650;2023-02-28T03:56:33;102355.38;;;-1.09;95.98
14612;BME280;7392;52.078;11.650;2023-02-28T03:59:07;102364.00;;;-1.10;95.67
14612;BME280;7392;52.078;11.650;2023-02-28T04:01:40;102359.59;;;-1.11;95.38
14612;BME280;7392;52.078;11.650;2023-02-28T04:04:09;102357.66;;;-1.14;95.17
14612;BME280;7392;52.078;11.650;2023-02-28T04:06:39;102358.44;;;-1.15;95.22
14612;BME280;7392;52.078;11.650;2023-02-28T04:09:10;102361.97;;;-1.14;95.67
14612;BME280;7392;52.078;11.650;2023-02-28T04:11:38;102366.25;;;-1.15;95.79
14612;BME280;7392;52.078;11.650;2023-02-28T04:14:07;102349.59;;;-1.17;95.50
14612;BME280;7392;52.078;11.650;2023-02-28T04:16:38;102355.53;;;-1.19;95.48
14612;BME280;7392;52.078;11.650;2023-02-28T04:19:07;102357.22;;;-1.20;95.65
14612;BME280;7392;52.078;11.650;2023-02-28T04:21:36;102364.13;;;-1.20;95.47
14612;BME280;7392;52.078;11.650;2023-02-28T04:24:08;102357.91;;;-1.22;95.51
14612;BME280;7392;52.078;11.650;2023-02-28T04:26:41;102357.81;;;-1.24;95.61
14612;BME280;7392;52.078;11.650;2023-02-28T04:29:11;102362.91;;;-1.25;96.16
14612;BME280;7392;52.078;11.650;2023-02-28T04:31:39;102365.41;;;-1.27;95.60
14612;BME280;7392;52.078;11.650;2023-02-28T04:34:07;102375.81;;;-1.27;95.91
14612;BME280;7392;52.078;11.650;2023-02-28T04:36:35;102369.59;;;-1.29;96.01
14612;BME280;7392;52.078;11.650;2023-02-28T04:39:03;102366.09;;;-1.29;96.38
14612;BME280;7392;52.078;11.650;2023-02-28T04:41:32;102375.53;;;-1.32;96.22
14612;BME280;7392;52.078;11.650;2023-02-28T04:44:01;102371.88;;;-1.34;96.82
14612;BME280;7392;52.078;11.650;2023-02-28T04:46:28;102367.59;;;-1.33;97.00
14612;BME280;7392;52.078;11.650;2023-02-28T04:48:56;102369.16;;;-1.35;96.62
14612;BME280;7392;52.078;11.650;2023-02-28T04:51:24;102374.25;;;-1.37;96.97
14612;BME280;7392;52.078;11.650;2023-02-28T04:53:52;102363.63;;;-1.40;96.59
14612;BME280;7392;52.078;11.650;2023-02-28T04:56:20;102368.63;;;-1.43;96.32
14612;BME280;7392;52.078;11.650;2023-02-28T04:58:50;102370.88;;;-1.47;96.21
14612;BME280;7392;52.078;11.650;2023-02-28T05:01:22;102368.16;;;-1.49;96.76
14612;BME280;7392;52.078;11.650;2023-02-28T05:03:52;102366.91;;;-1.54;96.49
14612;BME280;7392;52.078;11.650;2023-02-28T05:06:21;102366.59;;;-1.59;96.47
14612;BME280;7392;52.078;11.650;2023-02-28T05:08:50;102360.16;;;-1.64;96.75
14612;BME280;7392;52.078;11.650;2023-02-28T05:11:20;102366.94;;;-1.66;96.39
14612;BME280;7392;52.078;11.650;2023-02-28T05:13:51;102376.22;;;-1.70;96.56
14612;BME280;7392;52.078;11.650;2023-02-28T05:16:19;102376.69;;;-1.75;96.78
14612;BME280;7392;52.078;11.650;2023-02-28T05:18:47;102373.72;;;-1.80;96.94
14612;BME280;7392;52.078;11.650;2023-02-28T05:21:24;102376.81;;;-1.85;97.03
14612;BME280;7392;52.078;11.650;2023-02-28T05:23:53;102380.00;;;-1.90;97.09
14612;BME280;7392;52.078;11.650;2023-02-28T05:26:22;102387.44;;;-1.94;97.04
14612;BME280;7392;52.078;11.650;2023-02-28T05:28:51;102381.00;;;-1.99;97.41
14612;BME280;7392;52.078;11.650;2023-02-28T05:31:19;102386.75;;;-2.03;97.50
14612;BME280;7392;52.078;11.650;2023-02-28T05:33:46;102393.44;;;-2.07;97.92
14612;BME280;7392;52.078;11.650;2023-02-28T05:36:14;102387.91;;;-2.12;97.56
14612;BME280;7392;52.078;11.650;2023-02-28T05:38:42;102397.25;;;-2.14;97.96
14612;BME280;7392;52.078;11.650;2023-02-28T05:41:10;102390.91;;;-2.17;98.46
14612;BME280;7392;52.078;11.650;2023-02-28T05:43:38;102399.31;;;-2.21;98.18
14612;BME280;7392;52.078;11.650;2023-02-28T05:46:09;102402.44;;;-2.26;98.72
14612;BME280;7392;52.078;11.650;2023-02-28T05:48:38;102404.84;;;-2.29;99.01
14612;BME280;7392;52.078;11.650;2023-02-28T05:51:07;102398.50;;;-2.32;98.92
14612;BME280;7392;52.078;11.650;2023-02-28T05:53:35;102402.53;;;-2.36;98.94
14612;BME280;7392;52.078;11.650;2023-02-28T05:56:04;102398.66;;;-2.41;98.89
14612;BME280;7392;52.078;11.650;2023-02-28T05:58:32;102402.88;;;-2.43;98.96
14612;BME280;7392;52.078;11.650;2023-02-28T06:01:20;102411.25;;;-2.47;98.63
14612;BME280;7392;52.078;11.650;2023-02-28T06:03:49;102411.00;;;-2.50;99.49
14612;BME280;7392;52.078;11.650;2023-02-28T06:06:16;102407.25;;;-2.54;98.87
14612;BME280;7392;52.078;11.650;2023-02-28T06:08:44;102410.41;;;-2.58;99.01
14612;BME280;7392;52.078;11.650;2023-02-28T06:11:12;102408.47;;;-2.60;99.11
14612;BME280;7392;52.078;11.650;2023-02-28T06:13:40;102415.25;;;-2.63;99.90
14612;BME280;7392;52.078;11.650;2023-02-28T06:16:09;102414.13;;;-2.66;100.00
14612;BME280;7392;52.078;11.650;2023-02-28T06:18:40;102419.97;;;-2.69;100.00
14612;BME280;7392;52.078;11.650;2023-02-28T06:21:07;102420.53;;;-2.73;100.00
14612;BME280;7392;52.078;11.650;2023-02-28T06:23:35;102425.50;;;-2.76;100.00
14612;BME280;7392;52.078;11.650;2023-02-28T06:26:03;102422.75;;;-2.77;100.00
14612;BME280;7392;52.078;11.650;2023-02-28T06:28:31;102423.31;;;-2.82;100.00
14612;BME280;7392;52.078;11.650;2023-02-28T06:30:58;102433.72;;;-2.82;100.00
14612;BME280;7392;52.078;11.650;2023-02-28T06:33:27;102432.59;;;-2.85;100.00
14612;BME280;7392;52.078;11.650;2023-02-28T06:35:56;102435.06;;;-2.87;100.00
14612;BME280;7392;52.078;11.650;2023-02-28T06:38:24;102435.84;;;-2.88;100.00
14612;BME280;7392;52.078;11.650;2023-02-28T06:40:55;102442.63;;;-2.90;100.00
14612;BME280;7392;52.078;11.650;2023-02-28T06:43:25;102442.50;;;-2.91;100.00
14612;BME280;7392;52.078;11.650;2023-02-28T06:45:54;102435.59;;;-2.91;100.00
14612;BME280;7392;52.078;11.650;2023-02-28T06:48:22;102445.09;;;-2.91;100.00
14612;BME280;7392;52.078;11.650;2023-02-28T06:50:50;102450.28;;;-2.91;100.00
14612;BME280;7392;52.078;11.650;2023-02-28T06:53:19;102449.41;;;-2.92;100.00
14612;BME280;7392;52.078;11.650;2023-02-28T06:55:46;102452.91;;;-2.91;100.00
14612;BME280;7392;52.078;11.650;2023-02-28T06:58:15;102448.47;;;-2.92;100.00
14612;BME280;7392;52.078;11.650;2023-02-28T07:00:45;102440.66;;;-2.92;100.00
14612;BME280;7392;52.078;11.650;2023-02-28T07:03:13;102453.03;;;-2.90;100.00
14612;BME280;7392;52.078;11.650;2023-02-28T07:05:41;102445.34;;;-2.88;100.00
14612;BME280;7392;52.078;11.650;2023-02-28T07:08:09;102451.56;;;-2.86;100.00
14612;BME280;7392;52.078;11.650;2023-02-28T07:10:39;102452.47;;;-2.86;100.00
14612;BME280;7392;52.078;11.650;2023-02-28T07:13:08;102467.41;;;-2.83;100.00
14612;BME280;7392;52.078;11.650;2023-02-28T07:15:36;102454.53;;;-2.82;100.00
14612;BME280;7392;52.078;11.650;2023-02-28T07:18:08;102465.06;;;-2.80;100.00
14612;BME280;7392;52.078;11.650;2023-02-28T07:20:36;102464.50;;;-2.76;100.00
14612;BME280;7392;52.078;11.650;2023-02-28T07:23:03;102475.03;;;-2.74;100.00
14612;BME280;7392;52.078;11.650;2023-02-28T07:25:31;102471.88;;;-2.70;100.00
14612;BME280;7392;52.078;11.650;2023-02-28T07:28:00;102471.22;;;-2.68;100.00
14612;BME280;7392;52.078;11.650;2023-02-28T07:30:27;102474.97;;;-2.64;100.00
14612;BME280;7392;52.078;11.650;2023-02-28T07:32:55;102467.44;;;-2.61;100.00
14612;BME280;7392;52.078;11.650;2023-02-28T07:35:23;102466.63;;;-2.60;100.00
14612;BME280;7392;52.078;11.650;2023-02-28T07:37:51;102478.97;;;-2.57;100.00
14612;BME280;7392;52.078;11.650;2023-02-28T07:40:19;102472.31;;;-2.54;100.00
14612;BME280;7392;52.078;11.650;2023-02-28T07:42:46;102472.81;;;-2.48;100.00
14612;BME280;7392;52.078;11.650;2023-02-28T07:45:17;102474.84;;;-2.43;100.00
14612;BME280;7392;52.078;11.650;2023-02-28T07:47:45;102472.81;;;-2.36;100.00
14612;BME280;7392;52.078;11.650;2023-02-28T07:50:15;102475.78;;;-2.31;100.00
14612;BME280;7392;52.078;11.650;2023-02-28T07:52:43;102477.06;;;-2.26;100.00
14612;BME280;7392;52.078;11.650;2023-02-28T07:55:10;102477.53;;;-2.20;100.00
14612;BME280;7392;52.078;11.650;2023-02-28T07:57:40;102470.06;;;-2.15;100.00
14612;BME280;7392;52.078;11.650;2023-02-28T08:00:10;102479.38;;;-2.07;100.00
14612;BME280;7392;52.078;11.650;2023-02-28T08:02:41;102484.25;;;-2.00;100.00
14612;BME280;7392;52.078;11.650;2023-02-28T08:05:09;102476.91;;;-1.94;100.00
14612;BME280;7392;52.078;11.650;2023-02-28T08:07:37;102488.72;;;-1.87;100.00
14612;BME280;7392;52.078;11.650;2023-02-28T08:10:06;102486.59;;;-1.81;100.00
14612;BME280;7392;52.078;11.650;2023-02-28T08:12:36;102478.31;;;-1.75;100.00
14612;BME280;7392;52.078;11.650;2023-02-28T08:15:04;102478.88;;;-1.67;100.00
14612;BME280;7392;52.078;11.650;2023-02-28T08:17:37;102476.75;;;-1.61;100.00
14612;BME280;7392;52.078;11.650;2023-02-28T08:20:07;102481.72;;;-1.53;100.00
14612;BME280;7392;52.078;11.650;2023-02-28T08:22:36;102482.19;;;-1.46;100.00
14612;BME280;7392;52.078;11.650;2023-02-28T08:25:05;102487.06;;;-1.39;100.00
14612;BME280;7392;52.078;11.650;2023-02-28T08:27:34;102486.72;;;-1.32;100.00
14612;BME280;7392;52.078;11.650;2023-02-28T08:30:02;102491.50;;;-1.26;100.00
14612;BME280;7392;52.078;11.650;2023-02-28T08:32:31;102479.69;;;-1.21;100.00
14612;BME280;7392;52.078;11.650;2023-02-28T08:34:59;102486.25;;;-1.15;100.00
14612;BME280;7392;52.078;11.650;2023-02-28T08:37:29;102483.44;;;-1.06;100.00
14612;BME280;7392;52.078;11.650;2023-02-28T08:39:57;102488.28;;;-0.99;100.00
14612;BME280;7392;52.078;11.650;2023-02-28T08:42:24;102488.16;;;-0.88;100.00
14612;BME280;7392;52.078;11.650;2023-02-28T08:44:52;102495.84;;;-0.78;100.00
14612;BME280;7392;52.078;11.650;2023-02-28T08:47:20;102484.44;;;-0.67;100.00
14612;BME280;7392;52.078;11.650;2023-02-28T08:49:50;102488.06;;;-0.53;100.00
14612;BME280;7392;52.078;11.650;2023-02-28T08:52:19;102491.03;;;-0.35;98.69
14612;BME280;7392;52.078;11.650;2023-02-28T08:54:48;102493.13;;;-0.17;97.07
14612;BME280;7392;52.078;11.650;2023-02-28T08:57:16;102493.59;;;0.02;96.61
14612;BME280;7392;52.078;11.650;2023-02-28T08:59:44;102486.19;;;0.22;95.32
14612;BME280;7392;52.078;11.650;2023-02-28T09:02:12;102489.25;;;0.41;93.00
14612;BME280;7392;52.078;11.650;2023-02-28T09:04:41;102486.31;;;0.63;92.08
14612;BME280;7392;52.078;11.650;2023-02-28T09:07:08;102480.72;;;0.84;90.89
14612;BME280;7392;52.078;11.650;2023-02-28T09:09:36;102481.38;;;1.08;89.80
14612;BME280;7392;52.078;11.650;2023-02-28T09:12:05;102477.50;;;1.29;88.09
14612;BME280;7392;52.078;11.650;2023-02-28T09:14:33;102471.78;;;1.50;86.84
14612;BME280;7392;52.078;11.650;2023-02-28T09:17:01;102474.94;;;1.73;85.43
14612;BME280;7392;52.078;11.650;2023-02-28T09:19:33;102471.63;;;1.90;82.56
14612;BME280;7392;52.078;11.650;2023-02-28T09:22:01;102482.22;;;2.06;79.33
14612;BME280;7392;52.078;11.650;2023-02-28T09:24:29;102478.63;;;2.19;75.86
14612;BME280;7392;52.078;11.650;2023-02-28T09:26:58;102473.28;;;2.33;73.02
14612;BME280;7392;52.078;11.650;2023-02-28T09:29:32;102474.28;;;2.50;71.67
14612;BME280;7392;52.078;11.650;2023-02-28T09:34:40;102484.34;;;2.88;71.06
14612;BME280;7392;52.078;11.650;2023-02-28T09:37:08;102480.47;;;3.13;71.70
14612;BME280;7392;52.078;11.650;2023-02-28T09:39:36;102479.34;;;3.24;67.05
14612;BME280;7392;52.078;11.650;2023-02-28T09:42:04;102473.03;;;3.37;64.53
14612;BME280;7392;52.078;11.650;2023-02-28T09:44:36;102470.09;;;3.47;61.94
14612;BME280;7392;52.078;11.650;2023-02-28T09:47:07;102483.47;;;3.68;62.77
14612;BME280;7392;52.078;11.650;2023-02-28T09:49:42;102484.47;;;3.87;60.63
14612;BME280;7392;52.078;11.650;2023-02-28T09:52:16;102475.56;;;4.01;58.27
14612;BME280;7392;52.078;11.650;2023-02-28T09:54:46;102468.00;;;4.07;54.50
14612;BME280;7392;52.078;11.650;2023-02-28T09:57:19;102477.91;;;4.13;53.75
14612;BME280;7392;52.078;11.650;2023-02-28T09:59:57;102481.13;;;4.24;54.26
14612;BME280;7392;52.078;11.650;2023-02-28T10:02:46;102475.00;;;4.41;54.53
14612;BME280;7392;52.078;11.650;2023-02-28T10:05:20;102473.03;;;4.55;53.24
14612;BME280;7392;52.078;11.650;2023-02-28T10:08:01;102476.59;;;4.74;53.20
14612;BME280;7392;52.078;11.650;2023-02-28T10:10:36;102477.63;;;4.95;54.30
14612;BME280;7392;52.078;11.650;2023-02-28T10:13:13;102469.94;;;5.18;54.12
14612;BME280;7392;52.078;11.650;2023-02-28T10:15:44;102473.00;;;5.27;51.40
14612;BME280;7392;52.078;11.650;2023-02-28T10:18:17;102478.75;;;5.38;52.47
14612;BME280;7392;52.078;11.650;2023-02-28T10:20:48;102475.38;;;5.60;53.96
14612;BME280;7392;52.078;11.650;2023-02-28T10:23:21;102479.00;;;5.81;53.79
14612;BME280;7392;52.078;11.650;2023-02-28T10:25:55;102480.81;;;6.02;53.05
14612;BME280;7392;52.078;11.650;2023-02-28T10:28:25;102474.59;;;6.21;53.12
14612;BME280;7392;52.078;11.650;2023-02-28T10:30:54;102483.50;;;6.44;52.88
14612;BME280;7392;52.078;11.650;2023-02-28T10:33:24;102475.38;;;6.61;52.66
14612;BME280;7392;52.078;11.650;2023-02-28T10:35:54;102476.53;;;6.67;52.14
14612;BME280;7392;52.078;11.650;2023-02-28T10:38:24;102469.88;;;6.77;51.55
14612;BME280;7392;52.078;11.650;2023-02-28T10:41:03;102466.06;;;6.91;50.93
14612;BME280;7392;52.078;11.650;2023-02-28T10:43:31;102470.78;;;7.00;50.38
14612;BME280;7392;52.078;11.650;2023-02-28T10:46:02;102477.22;;;7.07;49.47
14612;BME280;7392;52.078;11.650;2023-02-28T10:48:34;102467.03;;;7.16;49.76
14612;BME280;7392;52.078;11.650;2023-02-28T10:51:04;102469.81;;;7.19;49.37
14612;BME280;7392;52.078;11.650;2023-02-28T10:53:35;102462.34;;;7.32;49.08
14612;BME280;7392;52.078;11.650;2023-02-28T10:56:25;102458.84;;;7.33;46.96
14612;BME280;7392;52.078;11.650;2023-02-28T10:58:55;102460.84;;;7.38;47.27
14612;BME280;7392;52.078;11.650;2023-02-28T11:01:24;102450.72;;;7.51;47.93
14612;BME280;7392;52.078;11.650;2023-02-28T11:03:52;102463.38;;;7.35;44.69
14612;BME280;7392;52.078;11.650;2023-02-28T11:06:23;102463.56;;;7.40;46.25
14612;BME280;7392;52.078;11.650;2023-02-28T11:08:54;102449.09;;;7.54;47.61
14612;BME280;7392;52.078;11.650;2023-02-28T11:11:24;102457.59;;;7.70;48.07
14612;BME280;7392;52.078;11.650;2023-02-28T11:13:56;102454.63;;;7.84;48.32
14612;BME280;7392;52.078;11.650;2023-02-28T11:16:32;102451.63;;;7.99;48.24
14612;BME280;7392;52.078;11.650;2023-02-28T11:19:01;102449.41;;;8.12;48.39
14612;BME280;7392;52.078;11.650;2023-02-28T11:21:33;102447.28;;;8.27;48.12
14612;BME280;7392;52.078;11.650;2023-02-28T11:24:06;102443.34;;;8.41;48.06
14612;BME280;7392;52.078;11.650;2023-02-28T11:26:44;102447.25;;;8.51;47.53
14612;BME280;7392;52.078;11.650;2023-02-28T11:29:18;102435.09;;;8.58;46.96
14612;BME280;7392;52.078;11.650;2023-02-28T11:32:12;102434.53;;;8.68;46.83
14612;BME280;7392;52.078;11.650;2023-02-28T11:34:42;102433.88;;;8.75;45.52
14612;BME280;7392;52.078;11.650;2023-02-28T11:37:13;102432.63;;;8.91;45.73
14612;BME280;7392;52.078;11.650;2023-02-28T11:39:42;102427.75;;;9.05;45.89
14612;BME280;7392;52.078;11.650;2023-02-28T11:42:19;102424.81;;;9.25;46.14
14612;BME280;7392;52.078;11.650;2023-02-28T11:44:59;102427.06;;;9.41;45.91
14612;BME280;7392;52.078;11.650;2023-02-28T11:47:36;102435.19;;;9.47;45.00
14612;BME280;7392;52.078;11.650;2023-02-28T11:50:18;102411.66;;;9.60;45.11
14612;BME280;7392;52.078;11.650;2023-02-28T11:52:53;102420.25;;;9.51;41.51
14612;BME280;7392;52.078;11.650;2023-02-28T11:55:25;102422.16;;;9.55;43.35
14612;BME280;7392;52.078;11.650;2023-02-28T11:58:05;102422.59;;;9.70;44.55
14612;BME280;7392;52.078;11.650;2023-02-28T12:00:45;102422.19;;;9.88;44.56
14612;BME280;7392;52.078;11.650;2023-02-28T12:03:26;102417.84;;;9.92;43.20
14612;BME280;7392;52.078;11.650;2023-02-28T12:06:14;102411.88;;;10.01;43.69
14612;BME280;7392;52.078;11.650;2023-02-28T12:08:49;102413.84;;;10.06;42.55
14612;BME280;7392;52.078;11.650;2023-02-28T12:11:29;102421.25;;;10.20;43.08
14612;BME280;7392;52.078;11.650;2023-02-28T12:14:15;102413.31;;;10.21;41.50
14612;BME280;7392;52.078;11.650;2023-02-28T12:16:52;102414.53;;;10.33;41.99
14612;BME280;7392;52.078;11.650;2023-02-28T12:19:26;102409.56;;;10.46;42.45
14612;BME280;7392;52.078;11.650;2023-02-28T12:22:12;102402.00;;;10.63;42.68
14612;BME280;7392;52.078;11.650;2023-02-28T12:25:20;102401.72;;;10.91;42.45
14612;BME280;7392;52.078;11.650;2023-02-28T12:27:49;102399.50;;;11.09;41.98
14612;BME280;7392;52.078;11.650;2023-02-28T12:30:22;102399.72;;;11.20;41.60
14612;BME280;7392;52.078;11.650;2023-02-28T12:32:54;102392.78;;;11.28;41.18
14612;BME280;7392;52.078;11.650;2023-02-28T12:35:27;102394.00;;;11.44;41.22
14612;BME280;7392;52.078;11.650;2023-02-28T12:38:04;102394.38;;;11.63;41.00
14612;BME280;7392;52.078;11.650;2023-02-28T12:40:43;102382.22;;;11.75;40.61
14612;BME280;7392;52.078;11.650;2023-02-28T12:43:15;102379.72;;;11.85;40.33
14612;BME280;7392;52.078;11.650;2023-02-28T12:45:46;102383.88;;;11.70;36.22
14612;BME280;7392;52.078;11.650;2023-02-28T12:48:20;102379.13;;;11.54;36.63
14612;BME280;7392;52.078;11.650;2023-02-28T12:50:49;102367.19;;;11.33;35.62
14612;BME280;7392;52.078;11.650;2023-02-28T12:53:23;102366.28;;;11.31;37.28
14612;BME280;7392;52.078;11.650;2023-02-28T12:56:02;102367.38;;;11.41;38.71
14612;BME280;7392;52.078;11.650;2023-02-28T12:58:38;102352.44;;;11.51;38.44
14612;BME280;7392;52.078;11.650;2023-02-28T13:01:22;102362.34;;;11.58;37.70
14612;BME280;7392;52.078;11.650;2023-02-28T13:07:19;102347.31;;;12.09;38.73
14612;BME280;7392;52.078;11.650;2023-02-28T13:09:52;102343.75;;;12.07;37.19
14612;BME280;7392;52.078;11.650;2023-02-28T13:12:22;102342.03;;;12.12;37.79
14612;BME280;7392;52.078;11.650;2023-02-28T13:14:50;102344.13;;;12.30;38.42
14612;BME280;7392;52.078;11.650;2023-02-28T13:17:28;102346.13;;;12.46;38.21
14612;BME280;7392;52.078;11.650;2023-02-28T13:19:58;102340.19;;;12.63;38.24
14612;BME280;7392;52.078;11.650;2023-02-28T13:22:40;102344.91;;;12.84;37.94
14612;BME280;7392;52.078;11.650;2023-02-28T13:34:41;102349.25;;;12.77;36.77